Terminal Aerodrome Forecast
Issued by NWS Sterling, VA

Current Version | Previous Version | Text Only | Print | Product List | Glossary Off
Versions: 1 2 3 4 5 6 7 8 9 10 11 12 13 14 15 16 17 18

568
FTUS41 KLWX 211730
TAFMRB
TAF
KMRB 211730Z 2118/2218 27010KT P6SM SCT070
     FM220000 28005KT P6SM SCT100
     FM221700 27005KT P6SM BKN200=

USA.gov is the U.S. government's official web portal to all federal, state and local government web resources and services.